Holland, New York
Current Conditions -  °F | °C
As of 7:54 PM on Monday 22 Dec 2014 (Local Time) from KBUF Reporting Station
Overcast Overcast  
Wind Chill: 30°   Ceiling: 19000
Heat Index: 35°   Visibility: 10mi
Dew Point: 26°   Wind: 6mph
Humidity: 70%   Direction: 120°ESE
Pressure: 30.04"   Gusts: NA
Location:  42.64°N, 78.54°W
Report Text: KBUF 230054Z 12005KT 10SM FEW045 FEW140 BKN190 OVC270 02/M03 A3004 RMK AO2 SLP182 T00171033
Loading
Personal Weather Stations






























Interactive Weather Map New forecast layout! Learn more

10-Day Weather Forecast

Advertisements
Track Severe Weather on mobile